Nashville, Tennessee
Traffic Map
Current Weather Conditions
Nashville, Tennessee
Clear Light Fog
Clear

Feels Like: 4°
Wind Chill: Ceiling: Unl
Heat Index: Visibility: 10mi
Dew Point: Wind: 0mph
Humidity: 93% Direction: ° ()
Pressure: 30.17in Gusts: 0mph
Raw Report DataKBNA 301153Z 00000KT 10SM BCFG CLR 04/03 A3017 RMK AO2 SLP215 BCFG E T00440033 10094 20039 53008
Traffic Incident Summary
Active as of:
Severity:
Category:
InformationThere was an issue retrieving the traffic information for this location. Please try a different location or try again shortly.
Advertisements
Track Severe Weather on mobile